sensor_id;sensor_type;location;lat;lon;timestamp;pressure;altitude;pressure_sealevel;temperature;humidity
11523;BME280;40093;43.224;27.910;2022-08-03T00:00:54;100325.44;;;24.69;82.90
11523;BME280;40093;43.224;27.910;2022-08-03T00:03:22;100318.84;;;24.72;83.27
11523;BME280;40093;43.224;27.910;2022-08-03T00:05:49;100321.41;;;24.52;82.58
11523;BME280;40093;43.224;27.910;2022-08-03T00:08:16;100318.31;;;24.41;83.93
11523;BME280;40093;43.224;27.910;2022-08-03T00:10:43;100326.59;;;24.44;83.87
11523;BME280;40093;43.224;27.910;2022-08-03T00:13:10;100320.06;;;24.38;83.42
11523;BME280;40093;43.224;27.910;2022-08-03T00:15:39;100312.66;;;24.50;83.12
11523;BME280;40093;43.224;27.910;2022-08-03T00:18:06;100316.56;;;24.52;82.40
11523;BME280;40093;43.224;27.910;2022-08-03T00:20:34;100311.22;;;24.63;81.02
11523;BME280;40093;43.224;27.910;2022-08-03T00:23:01;100307.56;;;24.39;81.26
11523;BME280;40093;43.224;27.910;2022-08-03T00:25:29;100311.78;;;24.35;81.54
11523;BME280;40093;43.224;27.910;2022-08-03T00:27:56;100312.09;;;24.37;81.75
11523;BME280;40093;43.224;27.910;2022-08-03T00:30:23;100307.34;;;24.43;80.79
11523;BME280;40093;43.224;27.910;2022-08-03T00:32:50;100306.66;;;24.24;81.47
11523;BME280;40093;43.224;27.910;2022-08-03T00:35:18;100307.75;;;24.27;82.41
11523;BME280;40093;43.224;27.910;2022-08-03T00:37:46;100299.88;;;24.40;82.41
11523;BME280;40093;43.224;27.910;2022-08-03T00:40:15;100302.97;;;24.51;80.02
11523;BME280;40093;43.224;27.910;2022-08-03T00:42:46;100302.34;;;24.56;79.52
11523;BME280;40093;43.224;27.910;2022-08-03T00:45:15;100299.41;;;24.41;78.80
11523;BME280;40093;43.224;27.910;2022-08-03T00:47:42;100304.53;;;24.43;80.28
11523;BME280;40093;43.224;27.910;2022-08-03T00:50:09;100299.53;;;24.56;79.24
11523;BME280;40093;43.224;27.910;2022-08-03T00:52:36;100299.38;;;24.59;78.53
11523;BME280;40093;43.224;27.910;2022-08-03T00:55:05;100301.41;;;24.59;79.04
11523;BME280;40093;43.224;27.910;2022-08-03T00:57:32;100303.91;;;24.48;78.45
11523;BME280;40093;43.224;27.910;2022-08-03T00:59:59;100311.78;;;24.35;78.74
11523;BME280;40093;43.224;27.910;2022-08-03T01:02:26;100305.50;;;24.40;79.69
11523;BME280;40093;43.224;27.910;2022-08-03T01:04:53;100303.31;;;24.44;78.67
11523;BME280;40093;43.224;27.910;2022-08-03T01:07:26;100312.72;;;24.32;79.22
11523;BME280;40093;43.224;27.910;2022-08-03T01:10:00;100312.84;;;24.37;79.46
11523;BME280;40093;43.224;27.910;2022-08-03T01:12:34;100309.88;;;24.41;79.47
11523;BME280;40093;43.224;27.910;2022-08-03T01:15:07;100308.88;;;24.62;78.23
11523;BME280;40093;43.224;27.910;2022-08-03T01:17:39;100310.63;;;24.59;77.62
11523;BME280;40093;43.224;27.910;2022-08-03T01:20:10;100303.91;;;24.57;77.26
11523;BME280;40093;43.224;27.910;2022-08-03T01:23:02;100310.50;;;24.45;77.06
11523;BME280;40093;43.224;27.910;2022-08-03T01:25:38;100307.31;;;24.61;77.39
11523;BME280;40093;43.224;27.910;2022-08-03T01:28:21;100308.31;;;24.40;76.25
11523;BME280;40093;43.224;27.910;2022-08-03T01:30:55;100308.31;;;24.40;76.66
11523;BME280;40093;43.224;27.910;2022-08-03T01:33:28;100307.97;;;24.56;77.37
11523;BME280;40093;43.224;27.910;2022-08-03T01:36:01;100313.22;;;24.72;76.32
11523;BME280;40093;43.224;27.910;2022-08-03T01:38:32;100314.25;;;24.83;75.42
11523;BME280;40093;43.224;27.910;2022-08-03T01:41:03;100313.22;;;24.72;74.88
11523;BME280;40093;43.224;27.910;2022-08-03T01:43:30;100315.69;;;24.79;75.68
11523;BME280;40093;43.224;27.910;2022-08-03T01:45:59;100321.88;;;24.92;74.39
11523;BME280;40093;43.224;27.910;2022-08-03T01:48:27;100317.44;;;25.00;74.56
11523;BME280;40093;43.224;27.910;2022-08-03T01:50:56;100319.41;;;25.08;73.88
11523;BME280;40093;43.224;27.910;2022-08-03T01:53:25;100324.41;;;25.13;74.16
11523;BME280;40093;43.224;27.910;2022-08-03T01:55:54;100322.81;;;25.21;73.40
11523;BME280;40093;43.224;27.910;2022-08-03T01:58:23;100316.41;;;25.21;73.01
11523;BME280;40093;43.224;27.910;2022-08-03T02:00:52;100325.56;;;25.30;72.90
11523;BME280;40093;43.224;27.910;2022-08-03T02:03:25;100322.56;;;25.34;72.92
11523;BME280;40093;43.224;27.910;2022-08-03T02:05:55;100313.16;;;25.37;72.45
11523;BME280;40093;43.224;27.910;2022-08-03T02:08:24;100320.84;;;25.36;72.50
11523;BME280;40093;43.224;27.910;2022-08-03T02:10:54;100317.84;;;25.40;74.57
11523;BME280;40093;43.224;27.910;2022-08-03T02:13:23;100325.69;;;25.36;75.53
11523;BME280;40093;43.224;27.910;2022-08-03T02:15:51;100323.28;;;25.20;75.26
11523;BME280;40093;43.224;27.910;2022-08-03T02:18:20;100321.53;;;24.99;76.85
11523;BME280;40093;43.224;27.910;2022-08-03T02:20:50;100322.41;;;25.05;77.44
11523;BME280;40093;43.224;27.910;2022-08-03T02:23:17;100324.09;;;25.11;77.15
11523;BME280;40093;43.224;27.910;2022-08-03T02:25:47;100319.84;;;25.16;76.92
11523;BME280;40093;43.224;27.910;2022-08-03T02:28:18;100321.41;;;25.17;76.78
11523;BME280;40093;43.224;27.910;2022-08-03T02:30:50;100318.56;;;25.17;77.08
11523;BME280;40093;43.224;27.910;2022-08-03T02:33:21;100320.13;;;25.18;76.33
11523;BME280;40093;43.224;27.910;2022-08-03T02:35:52;100322.94;;;25.18;76.38
11523;BME280;40093;43.224;27.910;2022-08-03T02:38:23;100327.09;;;25.08;76.80
11523;BME280;40093;43.224;27.910;2022-08-03T02:40:54;100325.91;;;25.00;76.96
11523;BME280;40093;43.224;27.910;2022-08-03T02:43:22;100333.56;;;24.99;78.10
11523;BME280;40093;43.224;27.910;2022-08-03T02:45:51;100329.31;;;25.04;77.66
11523;BME280;40093;43.224;27.910;2022-08-03T02:48:20;100321.94;;;25.06;77.33
11523;BME280;40093;43.224;27.910;2022-08-03T02:50:52;100318.75;;;24.90;76.85
11523;BME280;40093;43.224;27.910;2022-08-03T02:53:20;100327.06;;;24.84;77.04
11523;BME280;40093;43.224;27.910;2022-08-03T02:55:48;100327.84;;;24.85;77.22
11523;BME280;40093;43.224;27.910;2022-08-03T02:58:17;100324.16;;;24.70;76.96
11523;BME280;40093;43.224;27.910;2022-08-03T03:00:46;100325.84;;;24.76;77.12
11523;BME280;40093;43.224;27.910;2022-08-03T03:03:14;100320.06;;;24.80;76.65
11523;BME280;40093;43.224;27.910;2022-08-03T03:05:41;100306.31;;;24.73;76.86
11523;BME280;40093;43.224;27.910;2022-08-03T03:08:12;100324.63;;;25.01;75.11
11523;BME280;40093;43.224;27.910;2022-08-03T03:10:40;100326.78;;;25.06;74.99
11523;BME280;40093;43.224;27.910;2022-08-03T03:13:08;100330.97;;;25.10;74.00
11523;BME280;40093;43.224;27.910;2022-08-03T03:15:37;100336.19;;;25.03;74.67
11523;BME280;40093;43.224;27.910;2022-08-03T03:18:04;100333.97;;;25.07;74.64
11523;BME280;40093;43.224;27.910;2022-08-03T03:20:35;100332.25;;;25.09;74.44
11523;BME280;40093;43.224;27.910;2022-08-03T03:23:04;100335.56;;;25.08;73.06
11523;BME280;40093;43.224;27.910;2022-08-03T03:25:33;100346.19;;;25.04;73.60
11523;BME280;40093;43.224;27.910;2022-08-03T03:28:01;100336.78;;;25.39;73.11
11523;BME280;40093;43.224;27.910;2022-08-03T03:30:28;100334.72;;;26.15;69.40
11523;BME280;40093;43.224;27.910;2022-08-03T03:32:56;100348.59;;;26.91;64.95
11523;BME280;40093;43.224;27.910;2022-08-03T03:35:23;100349.91;;;27.30;61.53
11523;BME280;40093;43.224;27.910;2022-08-03T03:37:51;100352.91;;;27.61;59.72
11523;BME280;40093;43.224;27.910;2022-08-03T03:40:19;100345.13;;;27.96;58.05
11523;BME280;40093;43.224;27.910;2022-08-03T03:42:47;100355.56;;;28.36;56.60
11523;BME280;40093;43.224;27.910;2022-08-03T03:45:15;100342.19;;;28.67;55.76
11523;BME280;40093;43.224;27.910;2022-08-03T03:47:42;100345.84;;;29.04;54.54
11523;BME280;40093;43.224;27.910;2022-08-03T03:50:09;100350.59;;;29.29;53.16
11523;BME280;40093;43.224;27.910;2022-08-03T03:52:37;100350.66;;;29.40;53.11
11523;BME280;40093;43.224;27.910;2022-08-03T03:55:04;100355.25;;;29.85;51.15
11523;BME280;40093;43.224;27.910;2022-08-03T03:57:33;100358.97;;;30.13;49.90
11523;BME280;40093;43.224;27.910;2022-08-03T04:00:01;100357.94;;;30.27;48.79
11523;BME280;40093;43.224;27.910;2022-08-03T04:02:28;100367.78;;;30.37;49.66
11523;BME280;40093;43.224;27.910;2022-08-03T04:04:55;100368.59;;;30.70;48.14
11523;BME280;40093;43.224;27.910;2022-08-03T04:07:46;100365.22;;;30.94;46.87
11523;BME280;40093;43.224;27.910;2022-08-03T04:10:32;100361.50;;;31.48;45.60
11523;BME280;40093;43.224;27.910;2022-08-03T04:13:19;100363.69;;;31.88;44.26
11523;BME280;40093;43.224;27.910;2022-08-03T04:15:49;100369.91;;;32.32;43.13
11523;BME280;40093;43.224;27.910;2022-08-03T04:18:18;100368.41;;;32.61;42.05
11523;BME280;40093;43.224;27.910;2022-08-03T04:20:46;100370.91;;;32.35;42.18
11523;BME280;40093;43.224;27.910;2022-08-03T04:23:16;100357.53;;;32.24;42.08
11523;BME280;40093;43.224;27.910;2022-08-03T04:25:45;100375.28;;;31.95;43.29
11523;BME280;40093;43.224;27.910;2022-08-03T04:28:14;100366.50;;;31.93;43.18
11523;BME280;40093;43.224;27.910;2022-08-03T04:30:49;100369.16;;;31.80;43.85
11523;BME280;40093;43.224;27.910;2022-08-03T04:33:22;100364.50;;;31.77;44.38
11523;BME280;40093;43.224;27.910;2022-08-03T04:35:53;100371.81;;;32.13;42.76
11523;BME280;40093;43.224;27.910;2022-08-03T04:38:24;100363.25;;;31.73;43.21
11523;BME280;40093;43.224;27.910;2022-08-03T04:40:51;100372.19;;;31.26;44.93
11523;BME280;40093;43.224;27.910;2022-08-03T04:43:20;100365.09;;;31.59;44.38
11523;BME280;40093;43.224;27.910;2022-08-03T04:45:50;100368.06;;;31.89;43.45
11523;BME280;40093;43.224;27.910;2022-08-03T04:48:18;100371.31;;;31.47;44.19
11523;BME280;40093;43.224;27.910;2022-08-03T04:50:45;100367.13;;;31.64;43.98
11523;BME280;40093;43.224;27.910;2022-08-03T04:53:13;100359.81;;;31.85;43.97
11523;BME280;40093;43.224;27.910;2022-08-03T04:55:41;100365.22;;;31.89;43.26
11523;BME280;40093;43.224;27.910;2022-08-03T04:58:08;100367.13;;;32.21;43.33
11523;BME280;40093;43.224;27.910;2022-08-03T05:00:37;100372.97;;;32.69;42.75
11523;BME280;40093;43.224;27.910;2022-08-03T05:03:05;100367.13;;;33.15;39.51
11523;BME280;40093;43.224;27.910;2022-08-03T05:05:32;100371.47;;;32.33;40.81
11523;BME280;40093;43.224;27.910;2022-08-03T05:07:59;100360.47;;;32.48;41.29
11523;BME280;40093;43.224;27.910;2022-08-03T05:10:26;100364.69;;;32.36;41.02
11523;BME280;40093;43.224;27.910;2022-08-03T05:12:53;100369.97;;;33.15;40.10
11523;BME280;40093;43.224;27.910;2022-08-03T05:15:20;100376.63;;;32.99;39.76
11523;BME280;40093;43.224;27.910;2022-08-03T05:17:47;100374.69;;;32.83;40.06
11523;BME280;40093;43.224;27.910;2022-08-03T05:20:16;100373.31;;;33.19;38.82
11523;BME280;40093;43.224;27.910;2022-08-03T05:22:42;100374.22;;;33.57;38.56
11523;BME280;40093;43.224;27.910;2022-08-03T05:25:09;100380.91;;;33.83;37.54
11523;BME280;40093;43.224;27.910;2022-08-03T05:27:36;100384.63;;;33.97;37.26
11523;BME280;40093;43.224;27.910;2022-08-03T05:30:04;100382.78;;;34.36;36.05
11523;BME280;40093;43.224;27.910;2022-08-03T05:32:31;100393.19;;;34.34;36.08
11523;BME280;40093;43.224;27.910;2022-08-03T05:34:58;100393.47;;;34.48;35.19
11523;BME280;40093;43.224;27.910;2022-08-03T05:37:26;100394.72;;;34.16;35.40
11523;BME280;40093;43.224;27.910;2022-08-03T05:39:53;100392.13;;;33.33;36.90
11523;BME280;40093;43.224;27.910;2022-08-03T05:42:20;100394.19;;;33.57;36.76
11523;BME280;40093;43.224;27.910;2022-08-03T05:44:47;100395.25;;;33.96;36.76
11523;BME280;40093;43.224;27.910;2022-08-03T05:47:14;100399.34;;;33.82;35.27
11523;BME280;40093;43.224;27.910;2022-08-03T05:49:41;100396.94;;;33.86;35.34
11523;BME280;40093;43.224;27.910;2022-08-03T05:52:07;100396.66;;;34.27;35.09
11523;BME280;40093;43.224;27.910;2022-08-03T05:54:36;100396.66;;;34.08;34.82
11523;BME280;40093;43.224;27.910;2022-08-03T05:57:03;100393.19;;;33.97;35.13
11523;BME280;40093;43.224;27.910;2022-08-03T05:59:30;100399.19;;;33.69;35.56
11523;BME280;40093;43.224;27.910;2022-08-03T06:01:57;100395.47;;;32.78;37.48
11523;BME280;40093;43.224;27.910;2022-08-03T06:04:24;100409.50;;;31.84;37.60
11523;BME280;40093;43.224;27.910;2022-08-03T06:06:50;100405.03;;;30.83;41.21
11523;BME280;40093;43.224;27.910;2022-08-03T06:09:17;100401.66;;;30.73;42.06
11523;BME280;40093;43.224;27.910;2022-08-03T06:11:46;100397.25;;;30.67;42.24
11523;BME280;40093;43.224;27.910;2022-08-03T06:14:12;100362.72;;;29.77;43.07
11523;BME280;40093;43.224;27.910;2022-08-03T06:16:39;100402.66;;;29.68;44.63
11523;BME280;40093;43.224;27.910;2022-08-03T06:19:06;100402.66;;;30.48;43.64
11523;BME280;40093;43.224;27.910;2022-08-03T06:21:33;100383.28;;;30.58;41.48
11523;BME280;40093;43.224;27.910;2022-08-03T06:24:00;100401.66;;;30.90;42.16
11523;BME280;40093;43.224;27.910;2022-08-03T06:26:27;100422.75;;;31.54;39.85
11523;BME280;40093;43.224;27.910;2022-08-03T06:28:55;100401.38;;;31.21;39.50
11523;BME280;40093;43.224;27.910;2022-08-03T06:31:24;100407.03;;;31.43;40.13
11523;BME280;40093;43.224;27.910;2022-08-03T06:33:53;100402.78;;;31.76;40.44
11523;BME280;40093;43.224;27.910;2022-08-03T06:36:20;100404.94;;;32.16;38.37
11523;BME280;40093;43.224;27.910;2022-08-03T06:38:47;100402.31;;;31.72;39.91
11523;BME280;40093;43.224;27.910;2022-08-03T06:41:15;100394.69;;;31.97;39.11
11523;BME280;40093;43.224;27.910;2022-08-03T06:43:41;100413.81;;;30.85;40.32
11523;BME280;40093;43.224;27.910;2022-08-03T06:46:10;100402.19;;;30.66;40.89
11523;BME280;40093;43.224;27.910;2022-08-03T06:48:37;100405.50;;;31.25;39.39
11523;BME280;40093;43.224;27.910;2022-08-03T06:51:04;100412.75;;;30.99;38.98
11523;BME280;40093;43.224;27.910;2022-08-03T06:53:31;100414.00;;;30.48;40.84
11523;BME280;40093;43.224;27.910;2022-08-03T06:55:58;100408.88;;;30.63;40.18
11523;BME280;40093;43.224;27.910;2022-08-03T06:58:25;100397.91;;;30.12;41.77
11523;BME280;40093;43.224;27.910;2022-08-03T07:00:52;100407.88;;;29.91;40.28
11523;BME280;40093;43.224;27.910;2022-08-03T07:03:20;100399.69;;;29.99;41.02
11523;BME280;40093;43.224;27.910;2022-08-03T07:05:47;100398.50;;;30.44;39.71
11523;BME280;40093;43.224;27.910;2022-08-03T07:08:16;100401.91;;;30.81;38.72
11523;BME280;40093;43.224;27.910;2022-08-03T07:10:43;100405.03;;;30.72;39.44
11523;BME280;40093;43.224;27.910;2022-08-03T07:13:10;100400.34;;;30.63;39.62
11523;BME280;40093;43.224;27.910;2022-08-03T07:15:37;100407.59;;;30.70;38.56
11523;BME280;40093;43.224;27.910;2022-08-03T07:18:05;100413.94;;;30.15;40.59
11523;BME280;40093;43.224;27.910;2022-08-03T07:20:33;100389.53;;;30.62;39.42
11523;BME280;40093;43.224;27.910;2022-08-03T07:23:00;100403.91;;;30.31;39.80
11523;BME280;40093;43.224;27.910;2022-08-03T07:25:27;100405.44;;;30.21;40.61
11523;BME280;40093;43.224;27.910;2022-08-03T07:27:54;100409.84;;;30.22;38.72
11523;BME280;40093;43.224;27.910;2022-08-03T07:30:21;100413.97;;;30.26;39.34
11523;BME280;40093;43.224;27.910;2022-08-03T07:32:48;100410.59;;;30.17;37.61
11523;BME280;40093;43.224;27.910;2022-08-03T07:35:14;100410.72;;;29.86;38.57
11523;BME280;40093;43.224;27.910;2022-08-03T07:37:43;100420.25;;;29.83;39.33
11523;BME280;40093;43.224;27.910;2022-08-03T07:40:10;100418.19;;;29.83;39.47
11523;BME280;40093;43.224;27.910;2022-08-03T07:42:37;100417.34;;;29.30;40.27
11523;BME280;40093;43.224;27.910;2022-08-03T07:45:04;100415.69;;;29.49;40.41
11523;BME280;40093;43.224;27.910;2022-08-03T07:47:32;100423.34;;;29.85;40.06
11523;BME280;40093;43.224;27.910;2022-08-03T07:49:59;100423.19;;;30.05;39.74
11523;BME280;40093;43.224;27.910;2022-08-03T07:52:26;100419.44;;;30.52;39.05
11523;BME280;40093;43.224;27.910;2022-08-03T07:55:13;100415.59;;;30.66;37.15
11523;BME280;40093;43.224;27.910;2022-08-03T07:57:40;100428.53;;;30.89;37.17
11523;BME280;40093;43.224;27.910;2022-08-03T08:00:12;100413.16;;;30.09;37.07
11523;BME280;40093;43.224;27.910;2022-08-03T08:02:39;100419.69;;;30.54;37.30
11523;BME280;40093;43.224;27.910;2022-08-03T08:05:07;100437.19;;;30.30;37.87
11523;BME280;40093;43.224;27.910;2022-08-03T08:07:35;100414.38;;;30.03;38.77
11523;BME280;40093;43.224;27.910;2022-08-03T08:10:03;100425.91;;;29.83;39.41
11523;BME280;40093;43.224;27.910;2022-08-03T08:12:31;100422.69;;;30.06;38.53
11523;BME280;40093;43.224;27.910;2022-08-03T08:14:58;100423.00;;;30.36;37.48
11523;BME280;40093;43.224;27.910;2022-08-03T08:17:25;100429.94;;;30.18;37.33
11523;BME280;40093;43.224;27.910;2022-08-03T08:19:53;100425.34;;;30.26;37.56
11523;BME280;40093;43.224;27.910;2022-08-03T08:22:19;100414.00;;;30.32;37.62
11523;BME280;40093;43.224;27.910;2022-08-03T08:24:46;100430.19;;;30.15;37.55
11523;BME280;40093;43.224;27.910;2022-08-03T08:27:13;100433.34;;;30.39;36.46
11523;BME280;40093;43.224;27.910;2022-08-03T08:29:42;100433.44;;;30.72;36.20
11523;BME280;40093;43.224;27.910;2022-08-03T08:32:09;100430.06;;;31.17;35.06
11523;BME280;40093;43.224;27.910;2022-08-03T08:34:37;100425.41;;;31.31;34.79
11523;BME280;40093;43.224;27.910;2022-08-03T08:37:04;100428.69;;;31.56;34.06
11523;BME280;40093;43.224;27.910;2022-08-03T08:39:31;100424.81;;;31.65;33.99
11523;BME280;40093;43.224;27.910;2022-08-03T08:41:58;100416.28;;;31.59;34.56
11523;BME280;40093;43.224;27.910;2022-08-03T08:44:25;100403.84;;;31.62;33.84
11523;BME280;40093;43.224;27.910;2022-08-03T08:46:54;100407.19;;;31.77;33.36
11523;BME280;40093;43.224;27.910;2022-08-03T08:49:22;100403.78;;;31.84;34.01
11523;BME280;40093;43.224;27.910;2022-08-03T08:51:54;100420.63;;;31.82;33.27
11523;BME280;40093;43.224;27.910;2022-08-03T08:54:22;100417.09;;;31.49;33.03
11523;BME280;40093;43.224;27.910;2022-08-03T08:56:51;100424.78;;;31.76;33.60
11523;BME280;40093;43.224;27.910;2022-08-03T08:59:19;100426.31;;;31.82;33.10
11523;BME280;40093;43.224;27.910;2022-08-03T09:01:47;100418.56;;;31.77;33.52
11523;BME280;40093;43.224;27.910;2022-08-03T09:04:16;100422.97;;;31.84;33.19
11523;BME280;40093;43.224;27.910;2022-08-03T09:06:43;100422.97;;;31.78;32.86
11523;BME280;40093;43.224;27.910;2022-08-03T09:09:10;100423.25;;;31.75;32.65
11523;BME280;40093;43.224;27.910;2022-08-03T09:11:41;100407.06;;;32.05;32.42
11523;BME280;40093;43.224;27.910;2022-08-03T09:14:08;100424.91;;;32.05;32.37
11523;BME280;40093;43.224;27.910;2022-08-03T09:16:35;100423.09;;;32.08;32.36
11523;BME280;40093;43.224;27.910;2022-08-03T09:19:10;100418.09;;;31.68;32.68
11523;BME280;40093;43.224;27.910;2022-08-03T09:21:39;100405.84;;;31.89;32.07
11523;BME280;40093;43.224;27.910;2022-08-03T09:24:06;100411.72;;;32.08;31.21
11523;BME280;40093;43.224;27.910;2022-08-03T09:26:34;100408.66;;;32.00;31.55
11523;BME280;40093;43.224;27.910;2022-08-03T09:29:04;100399.50;;;32.13;32.04
11523;BME280;40093;43.224;27.910;2022-08-03T09:31:33;100399.28;;;32.51;31.84
11523;BME280;40093;43.224;27.910;2022-08-03T09:34:01;100409.25;;;32.74;30.45
11523;BME280;40093;43.224;27.910;2022-08-03T09:36:49;100397.88;;;32.28;29.15
11523;BME280;40093;43.224;27.910;2022-08-03T09:39:20;100386.50;;;32.28;29.43
11523;BME280;40093;43.224;27.910;2022-08-03T09:42:03;100413.44;;;32.62;30.03
11523;BME280;40093;43.224;27.910;2022-08-03T09:44:33;100407.63;;;32.79;29.62
11523;BME280;40093;43.224;27.910;2022-08-03T09:47:01;100393.56;;;32.51;29.87
11523;BME280;40093;43.224;27.910;2022-08-03T09:49:28;100386.88;;;32.03;30.45
11523;BME280;40093;43.224;27.910;2022-08-03T09:52:00;100391.72;;;32.24;30.48
11523;BME280;40093;43.224;27.910;2022-08-03T09:54:31;100395.06;;;32.23;29.53
11523;BME280;40093;43.224;27.910;2022-08-03T09:56:58;100386.00;;;32.24;29.40
11523;BME280;40093;43.224;27.910;2022-08-03T09:59:27;100397.44;;;32.13;27.65
11523;BME280;40093;43.224;27.910;2022-08-03T10:01:55;100399.47;;;32.18;28.02
11523;BME280;40093;43.224;27.910;2022-08-03T10:04:23;100405.69;;;32.28;28.63
11523;BME280;40093;43.224;27.910;2022-08-03T10:07:05;100399.97;;;32.28;33.47
11523;BME280;40093;43.224;27.910;2022-08-03T10:09:34;100403.31;;;32.32;39.66
11523;BME280;40093;43.224;27.910;2022-08-03T10:12:08;100403.13;;;32.13;39.73
11523;BME280;40093;43.224;27.910;2022-08-03T10:14:36;100400.09;;;32.00;41.35
11523;BME280;40093;43.224;27.910;2022-08-03T10:17:04;100372.72;;;31.86;41.87
11523;BME280;40093;43.224;27.910;2022-08-03T10:19:31;100395.75;;;31.88;40.96
11523;BME280;40093;43.224;27.910;2022-08-03T10:22:02;100401.72;;;31.85;47.02
11523;BME280;40093;43.224;27.910;2022-08-03T10:24:33;100415.22;;;31.73;47.42
11523;BME280;40093;43.224;27.910;2022-08-03T10:27:02;100399.78;;;31.42;49.67
11523;BME280;40093;43.224;27.910;2022-08-03T10:29:33;100398.78;;;31.01;50.62
11523;BME280;40093;43.224;27.910;2022-08-03T10:32:03;100394.94;;;30.87;52.20
11523;BME280;40093;43.224;27.910;2022-08-03T10:34:36;100392.88;;;30.88;52.92
11523;BME280;40093;43.224;27.910;2022-08-03T10:37:09;100394.94;;;30.65;54.07
11523;BME280;40093;43.224;27.910;2022-08-03T10:39:38;100396.47;;;30.61;51.63
11523;BME280;40093;43.224;27.910;2022-08-03T10:42:22;100404.19;;;30.44;52.98
11523;BME280;40093;43.224;27.910;2022-08-03T10:44:55;100390.72;;;30.22;54.66
11523;BME280;40093;43.224;27.910;2022-08-03T10:47:27;100401.31;;;30.16;56.25
11523;BME280;40093;43.224;27.910;2022-08-03T10:49:54;100384.03;;;30.20;57.48
11523;BME280;40093;43.224;27.910;2022-08-03T10:52:22;100389.94;;;30.11;56.34
11523;BME280;40093;43.224;27.910;2022-08-03T10:54:50;100393.72;;;29.97;55.56
11523;BME280;40093;43.224;27.910;2022-08-03T10:57:45;100381.25;;;29.25;58.63
11523;BME280;40093;43.224;27.910;2022-08-03T11:00:13;100378.88;;;29.54;58.99
11523;BME280;40093;43.224;27.910;2022-08-03T11:03:08;100395.63;;;29.16;61.02
11523;BME280;40093;43.224;27.910;2022-08-03T11:05:38;100389.88;;;29.47;58.94
11523;BME280;40093;43.224;27.910;2022-08-03T11:08:23;100383.91;;;29.34;59.64
11523;BME280;40093;43.224;27.910;2022-08-03T11:10:53;100379.34;;;29.53;59.97
11523;BME280;40093;43.224;27.910;2022-08-03T11:13:24;100374.75;;;29.61;60.09
11523;BME280;40093;43.224;27.910;2022-08-03T11:15:55;100382.53;;;29.66;59.19
11523;BME280;40093;43.224;27.910;2022-08-03T11:18:23;100386.06;;;29.50;59.49
11523;BME280;40093;43.224;27.910;2022-08-03T11:20:51;100375.25;;;29.54;60.35
11523;BME280;40093;43.224;27.910;2022-08-03T11:26:11;100363.50;;;29.30;61.39
11523;BME280;40093;43.224;27.910;2022-08-03T11:28:38;100361.75;;;29.38;61.34
11523;BME280;40093;43.224;27.910;2022-08-03T11:34:25;100367.81;;;29.20;60.71
11523;BME280;40093;43.224;27.910;2022-08-03T11:37:22;100362.81;;;28.98;62.43
11523;BME280;40093;43.224;27.910;2022-08-03T11:39:52;100341.72;;;29.05;61.24
11523;BME280;40093;43.224;27.910;2022-08-03T11:42:52;100345.38;;;29.16;61.00
11523;BME280;40093;43.224;27.910;2022-08-03T11:45:19;100367.78;;;29.14;60.31
11523;BME280;40093;43.224;27.910;2022-08-03T11:47:48;100385.72;;;28.69;60.13
11523;BME280;40093;43.224;27.910;2022-08-03T11:50:18;100369.53;;;28.70;61.57
11523;BME280;40093;43.224;27.910;2022-08-03T11:52:46;100365.00;;;28.89;60.28
11523;BME280;40093;43.224;27.910;2022-08-03T11:55:16;100362.84;;;29.04;57.29
11523;BME280;40093;43.224;27.910;2022-08-03T11:57:44;100356.25;;;29.23;58.10
11523;BME280;40093;43.224;27.910;2022-08-03T12:00:24;100348.28;;;29.33;58.43
11523;BME280;40093;43.224;27.910;2022-08-03T12:02:56;100359.34;;;29.25;58.15
11523;BME280;40093;43.224;27.910;2022-08-03T12:05:42;100342.19;;;28.98;58.44
11523;BME280;40093;43.224;27.910;2022-08-03T12:08:11;100347.38;;;29.05;59.47
11523;BME280;40093;43.224;27.910;2022-08-03T12:10:39;100348.66;;;29.04;59.49
11523;BME280;40093;43.224;27.910;2022-08-03T12:13:06;100353.06;;;29.05;60.15
11523;BME280;40093;43.224;27.910;2022-08-03T12:15:36;100362.56;;;29.02;60.45
11523;BME280;40093;43.224;27.910;2022-08-03T12:18:14;100351.78;;;28.75;60.54
11523;BME280;40093;43.224;27.910;2022-08-03T12:20:41;100336.34;;;28.76;60.66
11523;BME280;40093;43.224;27.910;2022-08-03T12:23:09;100343.88;;;28.90;59.97
11523;BME280;40093;43.224;27.910;2022-08-03T12:25:39;100346.59;;;28.73;58.76
11523;BME280;40093;43.224;27.910;2022-08-03T12:28:10;100352.31;;;28.79;60.07
11523;BME280;40093;43.224;27.910;2022-08-03T12:30:38;100359.00;;;28.76;59.96
11523;BME280;40093;43.224;27.910;2022-08-03T12:33:20;100354.78;;;28.66;60.26
11523;BME280;40093;43.224;27.910;2022-08-03T12:35:50;100340.69;;;28.41;61.46
11523;BME280;40093;43.224;27.910;2022-08-03T12:38:27;100338.91;;;28.43;61.39
11523;BME280;40093;43.224;27.910;2022-08-03T12:41:00;100328.38;;;28.44;62.49
11523;BME280;40093;43.224;27.910;2022-08-03T12:43:27;100336.63;;;28.47;62.47
11523;BME280;40093;43.224;27.910;2022-08-03T12:46:10;100342.34;;;28.27;62.81
11523;BME280;40093;43.224;27.910;2022-08-03T12:48:59;100346.22;;;28.04;65.14
11523;BME280;40093;43.224;27.910;2022-08-03T12:51:26;100340.22;;;28.22;64.53
11523;BME280;40093;43.224;27.910;2022-08-03T12:53:54;100335.34;;;28.23;64.14
11523;BME280;40093;43.224;27.910;2022-08-03T12:56:22;100346.44;;;28.26;63.99
11523;BME280;40093;43.224;27.910;2022-08-03T12:58:49;100345.81;;;28.37;62.49